Latest Weather Observations for Maatsuyker Island

IDT60801

Issued at 2:32 am EDT Friday 9 December 2016 (issued every 30 minutes, with the page automatically refreshed every 10 minutes)

About weather observations | Map of weather stations | Latest weather observations for TAS | Other Formats
Station Details ID: 094041 Name: MAATSUYKER ISLAND LIGHTHOUSE Lat: -43.66 Lon: 146.27 Height: 146.5 m
Data from the previous 72 hours. | See also: Recent months at Maatsuyker Island
Date/Time
EDT
Temp
°C
App
Temp
°C
Dew
Point
°C
Rel
Hum
%
Delta-T
°C
Wind Press
QNH
hPa
Press
MSL
hPa
Rain since
9am
mm
Dir  Spd
km/h
Gust
km/h
Spd
kts
Gust
kts
09/02:30am 8.1 -2.6 4.5 78 1.6 WSW 50 72 27 39 999.2 - 16.6
09/02:08am 8.3 -2.4 4.7 78 1.6 SW 50 69 27 37 998.8 - 16.6
09/02:00am 8.3 -3.7 4.7 78 1.6 WSW 57 72 31 39 998.6 - 16.6
09/01:30am 8.2 -2.0 5.1 81 1.4 SW 48 70 26 38 998.0 - 16.6
09/01:08am 8.8 -2.4 5.8 81 1.4 SW 54 72 29 39 997.4 - 16.6
09/01:00am 8.4 -3.9 5.3 81 1.4 WSW 59 70 32 38 997.2 - 16.6
09/12:30am 8.5 -3.2 5.4 81 1.4 SW 56 74 30 40 996.4 - 16.6
09/12:04am 8.6 -2.8 6.5 87 1.0 SW 56 74 30 40 995.7 - 16.6
09/12:00am 8.5 -3.7 5.7 82 1.3 SW 59 74 32 40 995.6 995.5 16.6
 
Date/Time
EDT
Temp
°C
App
Temp
°C
Dew
Point
°C
Rel
Hum
%
Delta-T
°C
Wind Press
QNH
hPa
Press
MSL
hPa
Rain since
9am
mm
Dir  Spd
km/h
Gust
km/h
Spd
kts
Gust
kts
08/11:30pm 8.2 -3.5 6.3 88 0.9 SW 57 76 31 41 994.6 - 16.4
08/11:00pm 8.4 -4.2 7.1 91 0.6 SW 63 83 34 45 993.9 - 16.2
08/10:58pm 8.3 -4.7 7.0 91 0.6 SW 65 83 35 45 993.9 - 16.0
08/10:50pm 8.4 -4.6 7.4 93 0.5 WSW 65 72 35 39 993.7 - 16.0
08/10:36pm 8.8 -3.0 7.3 90 0.7 SSW 59 78 32 42 993.1 - 16.0
08/10:30pm 8.9 -3.2 7.7 92 0.6 SSW 61 78 33 42 992.7 - 16.0
08/10:00pm 9.1 -2.9 8.1 93 0.5 SW 61 83 33 45 991.7 - 16.0
08/09:30pm 9.5 -1.6 8.9 96 0.3 SSW 57 82 31 44 990.2 - 15.8
08/09:22pm 9.7 -3.2 9.1 96 0.3 SSW 67 95 36 51 989.7 - 15.4
08/09:03pm 10.1 -4.4 9.7 97 0.2 SSW 76 95 41 51 987.7 - 15.4
08/09:00pm 10.1 -5.1 9.7 97 0.2 SSW 80 96 43 52 987.6 987.6 15.2
08/08:50pm 10.4 -4.0 10.0 97 0.2 SSW 76 95 41 51 986.8 - 15.2
08/08:45pm 10.5 -5.2 10.1 97 0.2 SSW 83 93 45 50 986.5 - 14.8
08/08:39pm 10.9 0.3 10.5 97 0.2 SW 57 83 31 45 986.3 - 14.2
08/08:38pm 11.0 -0.4 10.6 97 0.2 SW 61 72 33 39 986.2 - 14.2
08/08:36pm 11.5 5.2 10.9 96 0.3 WSW 35 54 19 29 986.1 - 14.2
08/08:30pm 11.5 4.8 10.9 96 0.3 W 37 48 20 26 985.8 - 14.2
08/08:00pm 11.5 3.6 10.9 96 0.3 W 43 56 23 30 984.5 - 14.2
08/07:56pm 11.5 3.6 10.9 96 0.3 W 43 54 23 29 984.4 - 14.2
08/07:30pm 11.6 0.3 11.0 96 0.3 WNW 61 72 33 39 982.8 - 14.2
08/07:28pm 11.6 0.4 11.2 97 0.2 WNW 61 72 33 39 982.7 - 14.2
08/07:00pm 11.8 -0.5 11.4 97 0.2 WNW 67 78 36 42 980.7 - 14.2
08/06:55pm 11.7 -0.6 11.3 97 0.2 WNW 67 76 36 41 980.3 - 14.2
08/06:48pm 11.8 -0.9 11.1 95 0.4 NNW 69 76 37 41 979.0 - 14.0
08/06:42pm 12.0 2.9 11.3 95 0.4 N 50 78 27 42 978.7 - 13.8
08/06:30pm 12.1 5.3 10.6 90 0.8 N 37 56 20 30 979.3 - 13.0
08/06:23pm 11.9 5.5 10.8 93 0.6 N 35 56 19 30 979.7 - 12.6
08/06:00pm 13.1 11.0 11.1 88 1.1 NNW 13 37 7 20 980.1 980.0 12.4
08/05:30pm 13.3 9.6 11.5 89 1.0 NNW 22 32 12 17 979.6 - 12.4
08/05:04pm 13.2 7.1 11.7 91 0.8 NW 35 54 19 29 979.8 - 12.0
08/05:00pm 13.2 5.4 11.7 91 0.8 NW 44 59 24 32 979.8 - 12.0
08/04:46pm 13.0 3.5 11.1 88 1.0 NW 52 69 28 37 979.7 - 11.8
08/04:30pm 14.0 5.9 10.8 81 1.7 NW 44 50 24 27 979.8 - 11.8
08/04:00pm 13.8 5.8 10.6 81 1.7 NW 43 57 23 31 980.8 - 11.8
08/03:30pm 14.3 6.2 10.0 75 2.2 NW 43 57 23 31 981.6 - 11.8
08/03:00pm 14.8 5.2 10.7 76 2.2 NW 52 65 28 35 981.9 981.8 11.8
08/02:30pm 14.5 5.7 10.8 78 2.0 NNW 48 59 26 32 982.4 - 11.8
08/02:00pm 13.9 5.4 10.5 80 1.8 NNW 46 61 25 33 983.5 - 11.8
08/01:37pm 13.2 3.7 11.2 88 1.1 NNW 52 74 28 40 983.2 - 11.8
08/01:30pm 13.4 5.0 12.3 93 0.6 NNW 48 63 26 34 983.6 - 11.8
08/01:23pm 13.4 8.9 12.7 95 0.4 NNW 28 50 15 27 984.2 - 11.8
08/01:00pm 14.1 9.7 12.8 92 0.7 N 28 37 15 20 984.1 - 11.2
08/12:30pm 14.0 11.6 12.6 91 0.8 NNW 17 22 9 12 984.9 - 11.0
08/12:00pm 13.6 12.2 12.1 91 0.8 NE 11 17 6 9 985.2 985.1 11.0
08/11:30am 12.6 9.9 11.7 94 0.5 ENE 17 24 9 13 986.2 - 10.8
08/11:00am 13.0 13.6 11.9 93 0.6 CALM 0 0 0 0 987.0 - 9.4
08/10:30am 12.7 11.4 11.4 92 0.7 NE 9 15 5 8 987.8 - 7.8
08/10:00am 12.6 10.5 11.1 91 0.8 NE 13 26 7 14 988.7 - 6.0
08/09:30am 12.0 10.6 10.9 93 0.6 ESE 9 22 5 12 989.7 - 3.8
08/09:00am 11.9 8.6 11.0 94 0.5 ENE 19 20 10 11 989.7 989.6 6.8
08/08:30am 11.6 10.1 10.5 93 0.6 NNE 9 15 5 8 991.6 - 5.8
08/08:00am 11.7 10.4 10.0 89 0.9 N 7 11 4 6 992.7 - 4.0
08/07:30am 11.8 10.4 9.5 86 1.2 ENE 7 13 4 7 993.9 - 3.2
08/07:00am 11.8 10.0 9.3 85 1.3 N 9 11 5 6 994.8 - 1.6
08/06:30am 12.3 9.9 10.2 87 1.1 N 13 15 7 8 996.0 - 0.6
08/06:00am 14.5 11.8 5.6 55 4.3 NNE 9 32 5 17 995.6 995.5 0.0
08/05:30am 14.2 9.5 6.2 58 3.9 NE 20 28 11 15 995.5 - 0.0
08/05:00am 14.5 10.4 6.1 57 4.1 NE 17 26 9 14 996.2 - 0.0
08/04:30am 14.5 10.8 6.3 58 4.0 NE 15 24 8 13 997.4 - 0.0
08/04:00am 14.5 11.2 6.6 59 3.9 ENE 13 17 7 9 998.1 - 0.0
08/03:30am 14.2 10.1 6.4 59 3.8 ENE 17 20 9 11 998.7 - 0.0
08/03:00am 13.8 9.6 5.9 59 3.8 E 17 24 9 13 999.6 999.6 0.0
08/02:30am 13.6 11.0 6.2 61 3.6 NE 9 13 5 7 1000.6 - 0.0
08/02:00am 12.9 10.2 7.4 69 2.7 NW 11 19 6 10 1000.9 - 0.0
08/01:30am 12.6 9.8 8.6 76 2.0 NNW 13 24 7 13 1001.9 - 0.0
08/01:00am 12.7 10.1 7.6 71 2.5 NE 11 13 6 7 1003.2 - 0.0
08/12:30am 12.3 9.9 8.7 79 1.8 N 11 15 6 8 1004.5 - 0.0
08/12:00am 12.7 8.8 8.7 76 2.0 N 19 22 10 12 1004.9 1004.9 0.0
 
Date/Time
EDT
Temp
°C
App
Temp
°C
Dew
Point
°C
Rel
Hum
%
Delta-T
°C
Wind Press
QNH
hPa
Press
MSL
hPa
Rain since
9am
mm
Dir  Spd
km/h
Gust
km/h
Spd
kts
Gust
kts
07/11:30pm 12.9 9.3 8.5 74 2.2 N 17 20 9 11 1005.6 - 0.0
07/11:00pm 13.1 9.1 9.2 77 2.0 NNW 20 26 11 14 1006.3 - 0.0
07/10:30pm 13.4 9.5 9.3 76 2.1 NNW 20 28 11 15 1006.7 - 0.0
07/10:00pm 13.5 10.3 9.8 78 1.9 N 17 24 9 13 1007.1 - 0.0
07/09:30pm 13.7 8.9 9.0 73 2.4 NNW 24 35 13 19 1006.5 - 0.0
07/09:00pm 13.8 7.0 9.3 74 2.3 NNW 35 46 19 25 1006.4 1006.4 0.0
07/08:30pm 13.8 6.6 9.1 73 2.4 NNW 37 44 20 24 1006.6 - 0.0
07/08:00pm 13.9 7.0 9.0 72 2.5 NNW 35 44 19 24 1007.2 - 0.0
07/07:30pm 14.3 5.4 7.5 63 3.4 NNW 44 54 24 29 1007.1 - 0.0
07/07:15pm 14.1 4.0 7.2 63 3.4 NNW 50 69 27 37 1006.9 - 0.0
07/07:00pm 14.0 2.2 7.6 65 3.2 NNW 59 70 32 38 1006.8 - 0.0
07/06:30pm 14.2 1.1 6.6 60 3.7 NNW 65 82 35 44 1006.2 - 0.0
07/06:01pm 14.1 2.4 7.9 66 3.1 NNW 59 78 32 42 1006.4 - 0.0
07/06:00pm 14.0 2.5 8.5 69 2.8 NNW 59 76 32 41 1006.4 1006.4 0.0
07/05:30pm 14.2 1.2 8.9 70 2.7 NNW 67 87 36 47 1006.5 - 0.0
07/05:09pm 14.2 1.6 8.9 70 2.7 NNW 65 85 35 46 1006.6 - 0.0
07/05:00pm 14.0 2.4 9.6 75 2.3 NNW 61 72 33 39 1006.7 - 0.0
07/04:30pm 14.2 2.8 10.6 79 1.9 NNW 61 72 33 39 1007.0 - 0.0
07/04:00pm 14.3 3.1 9.9 75 2.3 NW 59 67 32 36 1007.0 - 0.0
07/03:30pm 14.3 3.1 7.7 64 3.3 NW 56 65 30 35 1007.2 - 0.0
07/03:00pm 13.9 2.7 7.7 66 3.1 NW 56 63 30 34 1007.3 1007.3 0.0
07/02:30pm 14.0 3.1 7.3 64 3.3 NW 54 65 29 35 1007.8 - 0.0
07/02:00pm 13.7 4.0 9.0 73 2.4 NW 50 57 27 31 1008.2 - 0.0
07/01:30pm 13.5 3.2 8.1 70 2.7 NW 52 57 28 31 1008.4 - 0.0
07/01:00pm 13.2 3.8 8.7 74 2.3 NNW 48 57 26 31 1008.6 - 0.0
07/12:30pm 12.8 2.0 7.7 71 2.5 NW 54 61 29 33 1008.7 - 0.0
07/12:00pm 12.7 1.6 8.1 73 2.3 NW 56 63 30 34 1008.6 1008.6 0.0
07/11:30am 12.6 1.8 9.1 79 1.8 NW 56 61 30 33 1008.7 - 0.0
07/11:00am 12.2 1.5 8.2 76 2.0 NNW 54 63 29 34 1008.7 - 0.0
07/10:30am 11.9 1.4 8.7 81 1.6 NNW 54 63 29 34 1008.7 - 0.0
07/10:00am 11.6 0.1 8.6 82 1.5 NW 59 65 32 35 1008.8 - 0.0
07/09:30am 11.4 0.4 9.0 85 1.2 NW 57 65 31 35 1008.6 - 0.0
07/09:00am 11.4 2.6 9.6 89 0.9 NW 46 63 25 34 1008.6 1008.6 2.4
07/08:30am 11.1 0.3 9.9 92 0.6 NW 57 65 31 35 1008.3 - 2.4
07/08:26am 10.9 0.3 10.5 97 0.2 NW 57 65 31 35 1008.3 - 2.4
07/08:19am 11.5 5.2 11.1 97 0.2 NNW 35 57 19 31 1008.6 - 2.4
07/08:00am 11.8 5.5 11.2 96 0.3 NNW 35 46 19 25 1008.4 - 2.2
07/07:30am 11.8 5.3 10.5 92 0.7 NNW 35 44 19 24 1008.5 - 1.2
07/07:00am 11.7 5.2 10.4 92 0.7 NNW 35 46 19 25 1008.4 - 1.2
07/06:30am 11.7 5.2 10.2 90 0.8 NNW 35 44 19 24 1008.2 - 1.2
07/06:00am 11.5 4.0 9.5 87 1.0 NW 39 54 21 29 1008.0 1008.0 1.2
07/05:30am 11.4 3.9 9.6 89 0.9 NNW 39 54 21 29 1007.8 - 1.0
07/05:21am 11.4 4.3 9.6 89 0.9 NNW 37 56 20 30 1007.8 - 1.0
07/05:00am 11.7 3.7 9.1 84 1.3 NNW 41 52 22 28 1007.6 - 0.8
07/04:30am 11.8 3.7 8.8 82 1.5 NNW 41 57 22 31 1007.5 - 0.8
07/04:00am 12.1 4.0 8.7 80 1.7 NNW 41 50 22 27 1007.5 - 0.8
07/03:30am 12.1 4.0 8.5 78 1.8 NNW 41 52 22 28 1007.9 - 0.8
07/03:00am 12.1 4.0 8.5 78 1.8 NNW 41 52 22 28 1008.0 1008.0 0.8
07/02:30am 11.9 4.2 8.5 80 1.7 NNW 39 48 21 26 1008.6 - 0.8
07/02:00am 11.8 4.0 8.4 80 1.7 NNW 39 50 21 27 1008.6 - 0.8
07/01:30am 11.8 3.9 8.0 77 1.9 NNW 39 52 21 28 1008.8 - 0.8
07/01:00am 11.7 3.5 8.1 78 1.8 NNW 41 52 22 28 1008.8 - 0.8
07/12:30am 11.6 3.7 7.7 77 1.9 NNW 39 50 21 27 1009.0 - 0.8
07/12:00am 11.8 3.6 8.0 77 1.9 NNW 41 54 22 29 1008.8 1008.8 0.8
 
Date/Time
EDT
Temp
°C
App
Temp
°C
Dew
Point
°C
Rel
Hum
%
Delta-T
°C
Wind Press
QNH
hPa
Press
MSL
hPa
Rain since
9am
mm
Dir  Spd
km/h
Gust
km/h
Spd
kts
Gust
kts
06/11:30pm 11.9 3.7 8.1 77 1.9 NNW 41 50 22 27 1008.8 - 0.8
06/11:00pm 12.0 2.8 8.0 76 2.0 NNW 46 57 25 31 1008.8 - 0.8
06/10:30pm 12.1 2.2 8.3 77 1.9 NNW 50 61 27 33 1008.9 - 0.8
06/10:00pm 11.9 1.7 8.5 80 1.7 NNW 52 63 28 34 1009.0 - 0.8
06/09:30pm 12.0 1.5 8.8 81 1.6 NNW 54 69 29 37 1008.8 - 0.8
06/09:05pm 12.1 1.9 8.5 78 1.8 NNW 52 70 28 38 1008.3 - 0.8
06/09:00pm 12.4 2.9 8.4 76 2.0 NNW 48 61 26 33 1008.4 1008.4 0.8
06/08:30pm 12.3 1.3 8.5 77 1.9 NNW 56 65 30 35 1008.4 - 0.8
06/08:00pm 12.2 1.5 8.2 76 2.0 NNW 54 69 29 37 1008.1 - 0.8
06/07:30pm 12.1 2.6 8.3 77 1.9 NNW 48 65 26 35 1008.1 - 0.8
06/07:00pm 12.2 2.2 7.7 74 2.2 NNW 50 63 27 34 1008.1 - 0.8
06/06:30pm 12.7 1.6 7.9 72 2.4 NNW 56 69 30 37 1007.8 - 0.8
06/06:00pm 12.7 1.4 8.1 73 2.3 NNW 57 70 31 38 1007.6 1007.6 0.8
06/05:30pm 12.8 1.3 7.3 69 2.7 NNW 57 70 31 38 1007.6 - 0.8
06/05:00pm 12.6 1.2 6.8 68 2.8 NNW 56 67 30 36 1007.7 - 0.8
06/04:30pm 12.9 2.1 6.2 64 3.2 NNW 52 65 28 35 1007.9 - 0.8
06/04:00pm 12.9 1.3 6.7 66 3.0 NNW 57 69 31 37 1007.8 - 0.8
06/03:30pm 13.0 2.2 5.9 62 3.4 NNW 52 61 28 33 1008.3 - 0.8
06/03:00pm 12.9 1.5 6.5 65 3.1 NNW 56 63 30 34 1008.4 1008.4 0.8
06/02:30pm 12.6 1.9 6.6 67 2.9 NNW 52 63 28 34 1008.4 - 0.8
06/02:00pm 12.4 0.9 6.1 65 3.0 NNW 56 65 30 35 1008.5 - 0.8
06/01:30pm 12.6 1.2 6.8 68 2.8 NNW 56 65 30 35 1008.6 - 0.8
06/01:00pm 12.2 0.6 5.9 65 3.0 NNW 56 65 30 35 1008.7 - 0.8
06/12:30pm 11.8 0.6 6.1 68 2.7 NNW 54 65 29 35 1009.0 - 0.8
06/12:00pm 11.8 2.7 5.9 67 2.8 NNW 43 52 23 28 1009.5 1009.5 0.8
06/11:30am 11.0 5.5 7.7 80 1.6 NNW 26 35 14 19 1009.8 - 0.6
06/11:00am 10.1 4.1 8.5 90 0.8 NNW 30 35 16 19 1010.1 - 0.6
06/10:30am 9.4 3.8 7.3 87 1.0 NNW 26 35 14 19 1010.2 - 0.6
06/10:00am 10.3 4.7 5.5 72 2.2 NNW 24 32 13 17 1010.3 - 0.0
06/09:30am 10.3 5.2 5.8 73 2.1 NNW 22 32 12 17 1010.4 - 0.0
06/09:00am 10.8 5.6 5.4 69 2.5 NNW 22 30 12 16 1010.6 1010.6 0.0
06/08:30am 10.5 5.9 5.5 71 2.3 NNW 19 26 10 14 1010.5 - 0.0
06/08:00am 10.7 5.1 5.3 69 2.5 NNW 24 32 13 17 1010.6 - 0.0
06/07:30am 10.6 4.5 4.9 68 2.6 NNW 26 33 14 18 1010.4 - 0.0
06/07:00am 10.6 4.1 4.7 67 2.7 NNW 28 37 15 20 1010.6 - 0.0
06/06:30am 10.3 4.5 4.6 68 2.6 NNW 24 32 13 17 1010.6 - 0.0
06/06:00am 10.3 3.4 4.6 68 2.6 NNW 30 43 16 23 1010.8 1010.8 0.0
06/05:30am 10.3 4.9 4.6 68 2.6 NNW 22 33 12 18 1010.8 - 0.0
06/05:00am 10.4 5.1 4.9 69 2.5 NNW 22 28 12 15 1010.9 - 0.0
06/04:30am 10.3 5.9 4.8 69 2.5 NNW 17 22 9 12 1010.1 - 0.0
06/04:00am 10.3 5.9 4.8 69 2.5 NNW 17 22 9 12 1010.0 - 0.0
06/03:30am 10.4 5.4 4.7 68 2.6 NNW 20 26 11 14 1010.3 - 0.0
06/03:00am 10.6 3.3 4.7 67 2.7 NNW 32 41 17 22 1010.1 1010.1 0.0

Other Formats:

Comma delimited format used in spreadsheet applications
http://www.bom.gov.au/fwo/IDT60801/IDT60801.94962.axf

JavaScript Object Notation format (JSON) in row-major order
http://www.bom.gov.au/fwo/IDT60801/IDT60801.94962.json